createdAt,value
2018-04-24T00:00:46.076Z,100467.16
2018-04-24T00:03:13.484Z,100458.45
2018-04-24T00:05:40.915Z,100453.73
2018-04-24T00:08:08.312Z,100448.77
2018-04-24T00:10:35.719Z,100443.39
2018-04-24T00:13:03.144Z,100440.29
2018-04-24T00:15:30.564Z,100440.84
2018-04-24T00:17:57.976Z,100446.14
2018-04-24T00:20:25.406Z,100448.48
2018-04-24T00:22:52.814Z,100452.00
2018-04-24T00:25:20.229Z,100452.98
2018-04-24T00:27:47.642Z,100454.56
2018-04-24T00:30:15.081Z,100460.30
2018-04-24T00:32:42.523Z,100450.67
2018-04-24T00:35:09.939Z,100438.62
2018-04-24T00:37:37.343Z,100438.17
2018-04-24T00:40:04.770Z,100431.83
2018-04-24T00:42:32.184Z,100440.69
2018-04-24T00:44:59.640Z,100434.50
2018-04-24T00:47:27.080Z,100428.88
2018-04-24T00:49:54.795Z,100416.39
2018-04-24T00:52:22.195Z,100414.30
2018-04-24T00:54:49.602Z,100412.66
2018-04-24T00:57:17.020Z,100413.20
2018-04-24T00:59:44.432Z,100411.75
2018-04-24T01:02:11.866Z,100414.83
2018-04-24T01:04:39.272Z,100408.22
2018-04-24T01:07:06.972Z,100407.33
2018-04-24T01:09:34.372Z,100411.79
2018-04-24T01:12:01.787Z,100417.29
2018-04-24T01:14:29.207Z,100411.91
2018-04-24T01:16:56.619Z,100402.94
2018-04-24T01:19:24.067Z,100399.36
2018-04-24T01:21:51.476Z,100400.17
2018-04-24T01:24:18.916Z,100399.30
2018-04-24T01:26:46.332Z,100401.89
2018-04-24T01:29:13.756Z,100390.27
2018-04-24T01:31:41.174Z,100393.37
2018-04-24T01:34:08.621Z,100389.03
2018-04-24T01:36:36.028Z,100388.40
2018-04-24T01:39:03.432Z,100391.59
2018-04-24T01:41:30.860Z,100394.09
2018-04-24T01:43:58.270Z,100395.22
2018-04-24T01:46:25.756Z,100384.17
2018-04-24T01:48:53.169Z,100385.75
2018-04-24T01:51:20.590Z,100377.01
2018-04-24T01:53:48.039Z,100383.16
2018-04-24T01:56:15.463Z,100398.04
2018-04-24T01:58:42.896Z,100393.52
2018-04-24T02:01:10.326Z,100392.95
2018-04-24T02:03:37.963Z,100382.33
2018-04-24T02:06:05.369Z,100378.39
2018-04-24T02:08:32.783Z,100371.86
2018-04-24T02:11:00.207Z,100359.25
2018-04-24T02:13:27.611Z,100371.25
2018-04-24T02:15:55.217Z,100373.61
2018-04-24T02:18:22.635Z,100385.38
2018-04-24T02:20:50.039Z,100384.17
2018-04-24T02:23:17.476Z,100384.95
2018-04-24T02:25:44.883Z,100375.05
2018-04-24T02:28:12.307Z,100384.45
2018-04-24T02:30:39.720Z,100383.97
2018-04-24T02:33:07.155Z,100378.23
2018-04-24T02:35:34.662Z,100369.03
2018-04-24T02:38:01.995Z,100356.01
2018-04-24T02:40:29.523Z,100355.60
2018-04-24T02:42:56.840Z,100360.46
2018-04-24T02:45:24.432Z,100360.55
2018-04-24T02:47:51.851Z,100360.59
2018-04-24T02:50:19.259Z,100363.75
2018-04-24T02:52:46.694Z,100373.36
2018-04-24T02:55:14.146Z,100379.50
2018-04-24T02:57:41.576Z,100370.81
2018-04-24T03:00:08.999Z,100371.23
2018-04-24T03:02:36.436Z,100360.62
2018-04-24T03:05:03.838Z,100357.87
2018-04-24T03:07:31.284Z,100364.38
2018-04-24T03:09:58.702Z,100360.89
2018-04-24T03:12:26.128Z,100363.74
2018-04-24T03:14:53.540Z,100360.81
2018-04-24T03:17:21.111Z,100355.34
2018-04-24T03:19:48.520Z,100339.45
2018-04-24T03:22:15.949Z,100330.86
2018-04-24T03:24:43.439Z,100305.18
2018-04-24T03:27:10.877Z,100314.30
2018-04-24T03:29:38.283Z,100307.68
2018-04-24T03:32:05.724Z,100314.17
2018-04-24T03:34:33.135Z,100320.82
2018-04-24T03:37:00.899Z,100318.60
2018-04-24T03:39:28.331Z,100309.06
2018-04-24T03:41:55.739Z,100325.14
2018-04-24T03:44:23.171Z,100319.70
2018-04-24T03:46:50.591Z,100333.81
2018-04-24T03:49:18.040Z,100338.99
2018-04-24T03:51:45.449Z,100340.59
2018-04-24T03:54:12.928Z,100333.41
2018-04-24T03:56:40.341Z,100348.01
2018-04-24T03:59:07.775Z,100357.00
2018-04-24T04:01:35.195Z,100363.84
2018-04-24T04:04:02.632Z,100369.61
2018-04-24T04:06:30.349Z,100371.29
2018-04-24T04:08:57.758Z,100375.78
2018-04-24T04:11:25.175Z,100380.72
2018-04-24T04:13:52.617Z,100373.46
2018-04-24T04:16:20.422Z,100370.83
2018-04-24T04:18:59.496Z,100364.31
2018-04-24T04:24:49.757Z,100372.05
2018-04-24T04:27:17.169Z,100365.14
2018-04-24T04:29:44.944Z,100361.31
2018-04-24T04:32:12.362Z,100374.50
2018-04-24T04:34:39.777Z,100372.00
2018-04-24T04:37:07.216Z,100377.65
2018-04-24T04:39:34.623Z,100386.72
2018-04-24T04:42:02.056Z,100391.22
2018-04-24T04:44:29.467Z,100395.15
2018-04-24T04:46:56.897Z,100384.26
2018-04-24T04:49:24.320Z,100386.97
2018-04-24T04:51:51.732Z,100393.96
2018-04-24T04:54:19.158Z,100393.89
2018-04-24T04:56:46.561Z,100394.24
2018-04-24T04:59:14.001Z,100389.70
2018-04-24T05:01:41.408Z,100386.61
2018-04-24T05:04:09.120Z,100383.41
2018-04-24T05:06:36.515Z,100385.36
2018-04-24T05:09:03.928Z,100394.86
2018-04-24T05:11:31.352Z,100389.06
2018-04-24T05:13:59.096Z,100389.67
2018-04-24T05:16:26.504Z,100386.86
2018-04-24T05:18:53.907Z,100395.86
2018-04-24T05:21:21.337Z,100396.33
2018-04-24T05:23:48.756Z,100393.37
2018-04-24T05:26:16.161Z,100383.39
2018-04-24T05:28:43.578Z,100397.20
2018-04-24T05:31:11.257Z,100392.66
2018-04-24T05:33:38.679Z,100394.21
2018-04-24T05:36:06.087Z,100405.92
2018-04-24T05:38:33.504Z,100406.36
2018-04-24T05:41:00.910Z,100403.70
2018-04-24T05:43:28.424Z,100400.63
2018-04-24T05:45:55.827Z,100397.02
2018-04-24T05:48:23.251Z,100406.74
2018-04-24T05:50:50.661Z,100406.91
2018-04-24T05:53:18.101Z,100405.20
2018-04-24T05:55:45.495Z,100402.22
2018-04-24T05:58:12.934Z,100412.66
2018-04-24T06:00:40.717Z,100403.22
2018-04-24T06:03:08.159Z,100403.83
2018-04-24T06:05:35.556Z,100408.88
2018-04-24T06:08:02.985Z,100410.41
2018-04-24T06:10:30.706Z,100423.37
2018-04-24T06:12:58.132Z,100423.72
2018-04-24T06:15:25.547Z,100425.22
2018-04-24T06:17:52.966Z,100419.09
2018-04-24T06:20:20.692Z,100428.27
2018-04-24T06:22:48.108Z,100431.81
2018-04-24T06:25:15.516Z,100437.00
2018-04-24T06:27:42.935Z,100430.91
2018-04-24T06:30:10.349Z,100416.22
2018-04-24T06:32:37.805Z,100417.78
2018-04-24T06:35:05.223Z,100417.86
2018-04-24T06:37:32.629Z,100406.06
2018-04-24T06:40:00.292Z,100409.06
2018-04-24T06:42:27.692Z,100403.64
2018-04-24T06:44:55.092Z,100405.66
2018-04-24T06:47:22.517Z,100402.28
2018-04-24T06:49:50.210Z,100396.95
2018-04-24T06:52:17.650Z,100398.03
2018-04-24T06:54:45.082Z,100403.89
2018-04-24T06:57:12.590Z,100407.95
2018-04-24T06:59:39.995Z,100410.75
2018-04-24T07:02:07.426Z,100413.82
2018-04-24T07:04:35.552Z,100427.91
2018-04-24T07:07:03.076Z,100407.46
2018-04-24T07:09:30.487Z,100392.67
2018-04-24T07:11:57.927Z,100380.95
2018-04-24T07:14:26.355Z,100370.97
2018-04-24T07:16:53.866Z,100373.00
2018-04-24T07:19:21.699Z,100371.44
2018-04-24T07:21:49.099Z,100382.00
2018-04-24T07:24:16.971Z,100412.12
2018-04-24T07:26:44.382Z,100423.58
2018-04-24T07:29:11.780Z,100421.09
2018-04-24T07:31:39.793Z,100426.31
2018-04-24T07:34:07.202Z,100435.47
2018-04-24T07:36:34.629Z,100433.03
2018-04-24T07:39:02.047Z,100436.91
2018-04-24T07:41:29.977Z,100429.70
2018-04-24T07:43:57.397Z,100438.98
2018-04-24T07:46:24.817Z,100429.20
2018-04-24T07:48:52.448Z,100430.30
2018-04-24T07:51:19.867Z,100430.97
2018-04-24T07:53:47.280Z,100450.78
2018-04-24T07:56:14.724Z,100448.91
2018-04-24T07:58:42.151Z,100445.94
2018-04-24T08:01:09.592Z,100439.98
2018-04-24T08:03:36.991Z,100437.77
2018-04-24T08:06:04.447Z,100443.81
2018-04-24T08:08:31.880Z,100446.75
2018-04-24T08:10:59.310Z,100439.52
2018-04-24T08:13:27.235Z,100447.72
2018-04-24T08:15:54.645Z,100453.34
2018-04-24T08:18:22.052Z,100449.97
2018-04-24T08:20:49.483Z,100449.10
2018-04-24T08:23:16.941Z,100444.83
2018-04-24T08:25:44.380Z,100450.77
2018-04-24T08:28:11.796Z,100464.17
2018-04-24T08:30:39.246Z,100460.03
2018-04-24T08:33:06.681Z,100476.20
2018-04-24T08:35:34.134Z,100478.94
2018-04-24T08:38:01.553Z,100473.20
2018-04-24T08:40:28.963Z,100458.64
2018-04-24T08:42:57.648Z,100460.44
2018-04-24T08:45:25.069Z,100462.40
2018-04-24T08:47:52.593Z,100457.98
2018-04-24T08:50:19.956Z,100454.48
2018-04-24T08:52:47.366Z,100454.66
2018-04-24T08:55:14.816Z,100455.89
2018-04-24T08:57:42.283Z,100462.53
2018-04-24T09:00:09.687Z,100451.02
2018-04-24T09:02:37.101Z,100458.04
2018-04-24T09:05:04.845Z,100452.97
2018-04-24T09:07:32.252Z,100456.57
2018-04-24T09:09:59.659Z,100466.35
2018-04-24T09:12:27.150Z,100460.33
2018-04-24T09:14:54.595Z,100468.78
2018-04-24T09:17:22.018Z,100462.02
2018-04-24T09:19:49.560Z,100455.59
2018-04-24T09:22:17.027Z,100465.46
2018-04-24T09:24:44.436Z,100469.12
2018-04-24T09:27:12.012Z,100476.27
2018-04-24T09:29:39.433Z,100472.77
2018-04-24T09:32:07.006Z,100476.73
2018-04-24T09:34:34.503Z,100473.22
2018-04-24T09:37:01.984Z,100461.72
2018-04-24T09:39:29.731Z,100449.70
2018-04-24T09:41:58.146Z,100450.23
2018-04-24T09:44:25.580Z,100437.65
2018-04-24T09:46:53.012Z,100438.73
2018-04-24T09:49:20.463Z,100440.11
2018-04-24T09:51:48.219Z,100432.78
2018-04-24T09:54:15.653Z,100443.49
2018-04-24T09:56:43.279Z,100454.20
2018-04-24T09:59:11.555Z,100455.00
2018-04-24T10:01:39.886Z,100452.94
2018-04-24T10:04:07.340Z,100434.31
2018-04-24T10:06:34.760Z,100433.63
2018-04-24T10:09:02.303Z,100439.85
2018-04-24T10:11:29.704Z,100445.56
2018-04-24T10:13:57.451Z,100439.59
2018-04-24T10:16:24.881Z,100449.23
2018-04-24T10:18:52.301Z,100456.53
2018-04-24T10:21:19.722Z,100455.09
2018-04-24T10:23:47.580Z,100461.19
2018-04-24T10:26:15.035Z,100462.98
2018-04-24T10:28:42.452Z,100455.80
2018-04-24T10:31:10.420Z,100460.42
2018-04-24T10:33:37.845Z,100467.54
2018-04-24T10:36:05.275Z,100482.41
2018-04-24T10:38:32.708Z,100477.55
2018-04-24T10:41:00.141Z,100469.66
2018-04-24T10:43:27.552Z,100474.28
2018-04-24T10:45:54.983Z,100464.76
2018-04-24T10:48:22.892Z,100466.27
2018-04-24T10:50:50.325Z,100467.64
2018-04-24T10:53:17.728Z,100455.48
2018-04-24T10:55:45.259Z,100468.55
2018-04-24T10:58:12.680Z,100469.77
2018-04-24T11:00:40.571Z,100468.16
2018-04-24T11:03:08.024Z,100478.72
2018-04-24T11:05:35.436Z,100472.19
2018-04-24T11:08:02.879Z,100462.13
2018-04-24T11:10:30.281Z,100460.87
2018-04-24T11:12:58.969Z,100453.23
2018-04-24T11:15:26.398Z,100446.61
2018-04-24T11:17:53.832Z,100447.05
2018-04-24T11:20:21.432Z,100444.11
2018-04-24T11:22:48.843Z,100448.02
2018-04-24T11:25:16.357Z,100447.78
2018-04-24T11:27:43.811Z,100438.13
2018-04-24T11:30:11.312Z,100448.64
2018-04-24T11:32:38.997Z,100441.18
2018-04-24T11:35:06.428Z,100438.70
2018-04-24T11:37:33.845Z,100438.38
2018-04-24T11:40:01.306Z,100436.23
2018-04-24T11:42:28.756Z,100439.86
2018-04-24T11:44:56.184Z,100442.50
2018-04-24T11:47:23.936Z,100442.09
2018-04-24T11:49:51.368Z,100442.09
2018-04-24T11:52:18.857Z,100438.55
2018-04-24T11:54:46.342Z,100442.28
2018-04-24T11:57:14.684Z,100445.52
2018-04-24T11:59:42.115Z,100448.93
2018-04-24T12:02:09.748Z,100445.62
2018-04-24T12:04:37.165Z,100452.72
2018-04-24T12:07:05.018Z,100454.54
2018-04-24T12:09:32.441Z,100461.30
2018-04-24T12:11:59.867Z,100451.58
2018-04-24T12:14:27.456Z,100441.84
2018-04-24T12:16:54.884Z,100467.40
2018-04-24T12:19:22.331Z,100455.47
2018-04-24T12:21:49.740Z,100474.69
2018-04-24T12:24:18.309Z,100473.01
2018-04-24T12:26:45.716Z,100479.83
2018-04-24T12:29:13.135Z,100476.59
2018-04-24T12:31:40.576Z,100481.88
2018-04-24T12:34:08.001Z,100471.23
2018-04-24T12:36:35.487Z,100477.08
2018-04-24T12:39:02.928Z,100473.75
2018-04-24T12:41:30.344Z,100466.80
2018-04-24T12:43:58.094Z,100480.70
2018-04-24T12:46:25.516Z,100477.02
2018-04-24T12:48:52.965Z,100479.24
2018-04-24T12:51:20.422Z,100474.80
2018-04-24T12:53:47.862Z,100470.97
2018-04-24T12:56:15.331Z,100465.00
2018-04-24T12:58:42.751Z,100454.55
2018-04-24T13:01:10.567Z,100454.83
2018-04-24T13:03:37.993Z,100442.59
2018-04-24T13:06:05.481Z,100445.06
2018-04-24T13:08:32.922Z,100448.30
2018-04-24T13:11:00.375Z,100443.80
2018-04-24T13:13:28.223Z,100445.80
2018-04-24T13:15:55.628Z,100440.47
2018-04-24T13:18:23.369Z,100440.05
2018-04-24T13:20:50.785Z,100433.14
2018-04-24T13:23:18.196Z,100433.35
2018-04-24T13:25:45.704Z,100433.33
2018-04-24T13:28:13.057Z,100430.74
2018-04-24T13:30:40.465Z,100432.95
2018-04-24T13:33:08.303Z,100442.84
2018-04-24T13:35:35.712Z,100433.46
2018-04-24T13:38:03.133Z,100431.03
2018-04-24T13:40:30.634Z,100430.42
2018-04-24T13:42:58.088Z,100421.47
2018-04-24T13:45:25.512Z,100416.26
2018-04-24T13:47:52.928Z,100405.11
2018-04-24T13:50:20.360Z,100411.34
2018-04-24T13:52:47.772Z,100415.14
2018-04-24T13:55:15.229Z,100405.82
2018-04-24T13:57:42.645Z,100417.57
2018-04-24T14:00:10.079Z,100414.38
2018-04-24T14:02:37.492Z,100410.42
2018-04-24T14:05:04.923Z,100397.64
2018-04-24T14:07:32.335Z,100388.30
2018-04-24T14:10:00.157Z,100387.73
2018-04-24T14:12:27.568Z,100401.44
2018-04-24T14:14:55.000Z,100394.73
2018-04-24T14:17:22.437Z,100397.11
2018-04-24T14:19:49.839Z,100392.55
2018-04-24T14:22:17.297Z,100395.53
2018-04-24T14:24:44.700Z,100390.96
2018-04-24T14:27:12.138Z,100396.55
2018-04-24T14:29:39.552Z,100390.95
2018-04-24T14:32:07.663Z,100387.59
2018-04-24T14:34:35.072Z,100387.59
2018-04-24T14:37:02.505Z,100377.03
2018-04-24T14:39:29.948Z,100381.60
2018-04-24T14:41:57.392Z,100376.23
2018-04-24T14:44:24.830Z,100370.61
2018-04-24T14:46:52.239Z,100366.63
2018-04-24T14:49:19.689Z,100368.02
2018-04-24T14:51:47.214Z,100358.05
2018-04-24T14:54:14.562Z,100355.86
2018-04-24T14:56:41.980Z,100353.91
2018-04-24T14:59:09.415Z,100353.30
2018-04-24T15:01:36.844Z,100352.70
2018-04-24T15:04:04.311Z,100344.95
2018-04-24T15:06:46.635Z,100349.11
2018-04-24T15:09:14.071Z,100338.74
2018-04-24T15:11:41.484Z,100337.15
2018-04-24T15:14:08.958Z,100342.48
2018-04-24T15:16:36.366Z,100345.08
2018-04-24T15:19:04.039Z,100334.73
2018-04-24T15:21:31.472Z,100335.13
2018-04-24T15:23:58.898Z,100329.58
2018-04-24T15:26:26.600Z,100336.16
2018-04-24T15:28:54.009Z,100330.58
2018-04-24T15:31:21.430Z,100320.45
2018-04-24T15:33:48.868Z,100317.84
2018-04-24T15:36:16.328Z,100325.02
2018-04-24T15:38:43.739Z,100326.98
2018-04-24T15:41:11.185Z,100317.23
2018-04-24T15:43:38.596Z,100323.17
2018-04-24T15:46:06.050Z,100318.57
2018-04-24T15:48:33.464Z,100316.97
2018-04-24T15:51:01.247Z,100316.21
2018-04-24T15:53:28.655Z,100315.59
2018-04-24T15:55:56.084Z,100309.07
2018-04-24T15:58:23.492Z,100310.87
2018-04-24T16:00:50.904Z,100306.29
2018-04-24T16:03:18.700Z,100305.08
2018-04-24T16:05:46.157Z,100298.33
2018-04-24T16:08:13.572Z,100296.73
2018-04-24T16:10:41.007Z,100288.19
2018-04-24T16:13:08.431Z,100292.77
2018-04-24T16:15:35.851Z,100295.52
2018-04-24T16:18:03.624Z,100292.95
2018-04-24T16:20:31.038Z,100296.53
2018-04-24T16:22:58.455Z,100297.53
2018-04-24T16:25:25.883Z,100291.34
2018-04-24T16:27:53.299Z,100294.54
2018-04-24T16:30:20.768Z,100295.94
2018-04-24T16:32:48.176Z,100291.74
2018-04-24T16:35:15.614Z,100294.31
2018-04-24T16:37:43.036Z,100292.91
2018-04-24T16:40:10.443Z,100282.98
2018-04-24T16:42:37.864Z,100282.17
2018-04-24T16:45:05.278Z,100278.19
2018-04-24T16:47:32.732Z,100279.98
2018-04-24T16:50:00.173Z,100282.16
2018-04-24T16:52:27.584Z,100279.78
2018-04-24T16:54:55.020Z,100278.98
2018-04-24T16:57:22.428Z,100276.56
2018-04-24T16:59:49.884Z,100272.41
2018-04-24T17:02:17.304Z,100275.75
2018-04-24T17:04:45.036Z,100270.52
2018-04-24T17:07:12.446Z,100268.33
2018-04-24T17:09:39.860Z,100266.93
2018-04-24T17:12:07.304Z,100267.33
2018-04-24T17:14:34.712Z,100267.50
2018-04-24T17:17:02.147Z,100260.34
2018-04-24T17:19:29.585Z,100252.97
2018-04-24T17:21:57.276Z,100245.18
2018-04-24T17:24:24.698Z,100234.84
2018-04-24T17:26:52.124Z,100234.61
2018-04-24T17:29:19.621Z,100231.80
2018-04-24T17:31:47.037Z,100236.55
2018-04-24T17:34:14.472Z,100238.31
2018-04-24T17:36:41.903Z,100231.73
2018-04-24T17:39:09.307Z,100232.52
2018-04-24T17:41:36.791Z,100234.52
2018-04-24T17:44:04.211Z,100229.34
2018-04-24T17:46:31.653Z,100226.91
2018-04-24T17:48:59.061Z,100218.97
2018-04-24T17:51:26.500Z,100223.30
2018-04-24T17:53:53.908Z,100219.94
2018-04-24T17:56:22.043Z,100216.97
2018-04-24T17:58:49.475Z,100212.96
2018-04-24T18:01:16.884Z,100212.35
2018-04-24T18:03:44.316Z,100224.41
2018-04-24T18:06:11.720Z,100218.65
2018-04-24T18:08:39.143Z,100211.49
2018-04-24T18:11:06.630Z,100210.07
2018-04-24T18:13:34.057Z,100210.48
2018-04-24T18:16:01.468Z,100211.65
2018-04-24T18:18:28.898Z,100207.02
2018-04-24T18:20:56.317Z,100213.93
2018-04-24T18:23:24.181Z,100198.81
2018-04-24T18:25:51.628Z,100203.16
2018-04-24T18:28:19.158Z,100190.45
2018-04-24T18:30:46.588Z,100193.59
2018-04-24T18:33:14.008Z,100182.50
2018-04-24T18:38:32.779Z,100196.56
2018-04-24T18:41:00.191Z,100191.19
2018-04-24T18:43:27.619Z,100199.52
2018-04-24T18:45:55.047Z,100197.33
2018-04-24T18:48:22.469Z,100183.42
2018-04-24T18:50:49.970Z,100185.20
2018-04-24T18:53:17.387Z,100184.00
2018-04-24T18:55:44.813Z,100184.00
2018-04-24T18:58:12.239Z,100179.44
2018-04-24T19:00:39.647Z,100167.53
2018-04-24T19:03:07.075Z,100161.00
2018-04-24T19:05:34.507Z,100154.25
2018-04-24T19:08:02.018Z,100146.11
2018-04-24T19:10:29.992Z,100146.50
2018-04-24T19:12:57.649Z,100138.95
2018-04-24T19:15:25.080Z,100142.50
2018-04-24T19:17:52.523Z,100133.19
2018-04-24T19:20:19.960Z,100126.44
2018-04-24T19:22:47.484Z,100127.42
2018-04-24T19:25:20.463Z,100128.99
2018-04-24T19:27:47.910Z,100128.41
2018-04-24T19:30:15.394Z,100126.22
2018-04-24T19:32:42.835Z,100127.82
2018-04-24T19:35:10.275Z,100134.14
2018-04-24T19:37:37.995Z,100127.02
2018-04-24T19:40:11.175Z,100124.61
2018-04-24T19:42:38.647Z,100126.59
2018-04-24T19:45:06.316Z,100111.73
2018-04-24T19:47:33.723Z,100106.36
2018-04-24T19:50:06.694Z,100114.28
2018-04-24T19:52:34.123Z,100107.31
2018-04-24T19:55:07.463Z,100110.49
2018-04-24T19:57:34.880Z,100108.48
2018-04-24T20:00:02.314Z,100097.80
2018-04-24T20:02:30.078Z,100104.33
2018-04-24T20:04:57.491Z,100101.73
2018-04-24T20:07:24.913Z,100094.58
2018-04-24T20:09:52.345Z,100100.12
2018-04-24T20:12:19.752Z,100092.21
2018-04-24T20:14:47.196Z,100094.40
2018-04-24T20:17:14.604Z,100092.61
2018-04-24T20:19:42.030Z,100091.41
2018-04-24T20:22:09.465Z,100082.47
2018-04-24T20:24:36.951Z,100082.47
2018-04-24T20:27:04.364Z,100081.08
2018-04-24T20:29:31.791Z,100073.78
2018-04-24T20:31:59.217Z,100073.56
2018-04-24T20:34:26.636Z,100069.59
2018-04-24T20:36:54.060Z,100065.22
2018-04-24T20:39:21.483Z,100066.41
2018-04-24T20:41:48.919Z,100057.08
2018-04-24T20:44:16.328Z,100052.12
2018-04-24T20:46:44.703Z,100058.03
2018-04-24T20:49:12.107Z,100058.40
2018-04-24T20:51:39.681Z,100057.19
2018-04-24T20:54:07.130Z,100049.86
2018-04-24T20:56:34.666Z,100046.47
2018-04-24T20:59:02.098Z,100047.09
2018-04-24T21:01:29.508Z,100045.08
2018-04-24T21:03:56.923Z,100036.98
2018-04-24T21:06:24.596Z,100044.09
2018-04-24T21:08:52.050Z,100041.91
2018-04-24T21:11:19.450Z,100031.22
2018-04-24T21:13:46.896Z,100033.81
2018-04-24T21:16:14.304Z,100031.84
2018-04-24T21:18:41.720Z,100026.87
2018-04-24T21:21:09.140Z,100029.03
2018-04-24T21:23:36.560Z,100022.50
2018-04-24T21:26:04.029Z,100014.00
2018-04-24T21:28:31.398Z,100012.58
2018-04-24T21:30:58.809Z,100007.41
2018-04-24T21:33:26.605Z,99998.25
2018-04-24T21:35:53.973Z,100000.08
2018-04-24T21:38:21.388Z,100002.41
2018-04-24T21:40:48.956Z,99996.28
2018-04-24T21:43:16.364Z,99980.09
2018-04-24T21:45:43.772Z,99985.05
2018-04-24T21:48:11.188Z,99976.73
2018-04-24T21:50:38.602Z,99973.55
2018-04-24T21:53:06.044Z,99970.38
2018-04-24T21:55:33.456Z,99972.17
2018-04-24T21:58:00.871Z,99964.47
2018-04-24T22:00:28.295Z,99957.11
2018-04-24T22:02:55.709Z,99954.13
2018-04-24T22:05:23.479Z,99946.14
2018-04-24T22:07:50.893Z,99941.19
2018-04-24T22:10:18.297Z,99934.66
2018-04-24T22:12:45.721Z,99933.06
2018-04-24T22:15:13.135Z,99928.72
2018-04-24T22:17:40.560Z,99921.97
2018-04-24T22:20:07.996Z,99920.62
2018-04-24T22:22:35.402Z,99919.84
2018-04-24T22:25:02.800Z,99914.30
2018-04-24T22:27:30.490Z,99918.06
2018-04-24T22:29:57.901Z,99910.17
2018-04-24T22:32:25.341Z,99913.34
2018-04-24T22:34:52.751Z,99910.02
2018-04-24T22:37:20.161Z,99914.39
2018-04-24T22:39:47.594Z,99899.91
2018-04-24T22:42:15.013Z,99897.94
2018-04-24T22:44:42.446Z,99893.97
2018-04-24T22:47:09.864Z,99883.06
2018-04-24T22:49:37.304Z,99880.45
2018-04-24T22:52:04.724Z,99872.72
2018-04-24T22:54:32.128Z,99871.77
2018-04-24T22:56:59.557Z,99864.44
2018-04-24T22:59:27.319Z,99861.64
2018-04-24T23:01:54.719Z,99860.47
2018-04-24T23:04:22.161Z,99856.52
2018-04-24T23:06:49.908Z,99850.17
2018-04-24T23:09:17.320Z,99843.27
2018-04-24T23:11:56.940Z,99843.86
2018-04-24T23:14:35.916Z,99836.77
2018-04-24T23:17:15.223Z,99830.23
2018-04-24T23:19:54.523Z,99823.70
2018-04-24T23:22:31.407Z,99822.52
2018-04-24T23:24:58.848Z,99828.67
2018-04-24T23:27:26.270Z,99818.95
2018-04-24T23:29:53.684Z,99813.81
2018-04-24T23:32:21.098Z,99812.84
2018-04-24T23:34:48.545Z,99818.81
2018-04-24T23:37:15.951Z,99808.50
2018-04-24T23:39:43.372Z,99808.89
2018-04-24T23:42:10.784Z,99801.96
2018-04-24T23:44:38.212Z,99805.53
2018-04-24T23:47:05.640Z,99796.84
2018-04-24T23:49:33.071Z,99787.71
2018-04-24T23:52:00.476Z,99780.22
2018-04-24T23:54:27.899Z,99779.60
2018-04-24T23:56:55.303Z,99772.27
2018-04-24T23:59:22.723Z,99767.33
